sensor_id;sensor_type;location;lat;lon;timestamp;P1;durP1;ratioP1;P2;durP2;ratioP2
8526;SDS011;4301;48.362;8.478;2022-09-30T00:00:38;44.37;;;6.10;;
8526;SDS011;4301;48.362;8.478;2022-09-30T00:03:05;55.70;;;6.60;;
8526;SDS011;4301;48.362;8.478;2022-09-30T00:05:32;223.07;;;8.90;;
8526;SDS011;4301;48.362;8.478;2022-09-30T00:08:00;66.03;;;6.37;;
8526;SDS011;4301;48.362;8.478;2022-09-30T00:10:27;11.70;;;4.20;;
8526;SDS011;4301;48.362;8.478;2022-09-30T00:12:55;27.83;;;3.80;;
8526;SDS011;4301;48.362;8.478;2022-09-30T00:15:22;97.20;;;5.60;;
8526;SDS011;4301;48.362;8.478;2022-09-30T00:17:51;100.43;;;6.17;;
8526;SDS011;4301;48.362;8.478;2022-09-30T00:20:18;89.90;;;6.60;;
8526;SDS011;4301;48.362;8.478;2022-09-30T00:22:45;20.50;;;5.50;;
8526;SDS011;4301;48.362;8.478;2022-09-30T00:25:13;52.57;;;6.37;;
8526;SDS011;4301;48.362;8.478;2022-09-30T00:27:40;72.33;;;5.87;;
8526;SDS011;4301;48.362;8.478;2022-09-30T00:30:08;30.50;;;5.53;;
8526;SDS011;4301;48.362;8.478;2022-09-30T00:32:35;82.53;;;6.70;;
8526;SDS011;4301;48.362;8.478;2022-09-30T00:35:04;75.03;;;6.17;;
8526;SDS011;4301;48.362;8.478;2022-09-30T00:37:32;107.53;;;7.60;;
8526;SDS011;4301;48.362;8.478;2022-09-30T00:39:59;50.40;;;6.27;;
8526;SDS011;4301;48.362;8.478;2022-09-30T00:42:27;27.97;;;5.77;;
8526;SDS011;4301;48.362;8.478;2022-09-30T00:44:56;17.33;;;5.87;;
8526;SDS011;4301;48.362;8.478;2022-09-30T00:50:28;25.37;;;5.90;;
8526;SDS011;4301;48.362;8.478;2022-09-30T00:53:02;22.10;;;5.73;;
8526;SDS011;4301;48.362;8.478;2022-09-30T00:55:44;6.80;;;5.60;;
8526;SDS011;4301;48.362;8.478;2022-09-30T00:58:17;5.30;;;4.07;;
8526;SDS011;4301;48.362;8.478;2022-09-30T01:00:48;7.07;;;4.10;;
8526;SDS011;4301;48.362;8.478;2022-09-30T01:03:17;3.97;;;3.57;;
8526;SDS011;4301;48.362;8.478;2022-09-30T01:05:48;5.00;;;3.80;;
8526;SDS011;4301;48.362;8.478;2022-09-30T01:08:17;8.57;;;3.90;;
8526;SDS011;4301;48.362;8.478;2022-09-30T01:10:46;4.20;;;3.80;;
8526;SDS011;4301;48.362;8.478;2022-09-30T01:13:13;8.83;;;4.30;;
8526;SDS011;4301;48.362;8.478;2022-09-30T01:15:49;4.20;;;3.90;;
8526;SDS011;4301;48.362;8.478;2022-09-30T01:18:33;4.90;;;4.40;;
8526;SDS011;4301;48.362;8.478;2022-09-30T01:24:16;4.37;;;3.97;;
8526;SDS011;4301;48.362;8.478;2022-09-30T01:27:07;5.10;;;4.60;;
8526;SDS011;4301;48.362;8.478;2022-09-30T01:33:01;5.33;;;4.43;;
8526;SDS011;4301;48.362;8.478;2022-09-30T01:35:41;5.47;;;4.97;;
8526;SDS011;4301;48.362;8.478;2022-09-30T01:38:24;4.73;;;4.43;;
8526;SDS011;4301;48.362;8.478;2022-09-30T01:40:57;5.00;;;4.60;;
8526;SDS011;4301;48.362;8.478;2022-09-30T01:43:31;5.13;;;4.60;;
8526;SDS011;4301;48.362;8.478;2022-09-30T01:46:08;4.80;;;4.40;;
8526;SDS011;4301;48.362;8.478;2022-09-30T01:48:48;4.83;;;4.47;;
8526;SDS011;4301;48.362;8.478;2022-09-30T01:51:23;4.70;;;4.37;;
8526;SDS011;4301;48.362;8.478;2022-09-30T01:53:56;4.90;;;4.50;;
8526;SDS011;4301;48.362;8.478;2022-09-30T01:56:28;5.07;;;4.67;;
8526;SDS011;4301;48.362;8.478;2022-09-30T01:59:02;4.90;;;4.50;;
8526;SDS011;4301;48.362;8.478;2022-09-30T02:01:33;5.37;;;4.40;;
8526;SDS011;4301;48.362;8.478;2022-09-30T02:04:06;4.97;;;4.53;;
8526;SDS011;4301;48.362;8.478;2022-09-30T02:06:39;4.63;;;4.27;;
8526;SDS011;4301;48.362;8.478;2022-09-30T02:09:11;4.43;;;4.13;;
8526;SDS011;4301;48.362;8.478;2022-09-30T02:11:42;4.77;;;4.37;;
8526;SDS011;4301;48.362;8.478;2022-09-30T02:14:10;6.97;;;4.93;;
8526;SDS011;4301;48.362;8.478;2022-09-30T02:16:41;5.20;;;4.67;;
8526;SDS011;4301;48.362;8.478;2022-09-30T02:19:15;4.87;;;4.47;;
8526;SDS011;4301;48.362;8.478;2022-09-30T02:21:49;5.20;;;4.80;;
8526;SDS011;4301;48.362;8.478;2022-09-30T02:24:21;4.60;;;4.20;;
8526;SDS011;4301;48.362;8.478;2022-09-30T02:26:50;4.37;;;4.07;;
8526;SDS011;4301;48.362;8.478;2022-09-30T02:29:22;4.90;;;4.23;;
8526;SDS011;4301;48.362;8.478;2022-09-30T02:31:53;6.47;;;4.70;;
8526;SDS011;4301;48.362;8.478;2022-09-30T02:34:27;4.93;;;4.50;;
8526;SDS011;4301;48.362;8.478;2022-09-30T02:36:59;5.50;;;5.00;;
8526;SDS011;4301;48.362;8.478;2022-09-30T02:39:31;5.83;;;5.33;;
8526;SDS011;4301;48.362;8.478;2022-09-30T02:42:04;5.47;;;5.07;;
8526;SDS011;4301;48.362;8.478;2022-09-30T02:44:36;5.13;;;4.73;;
8526;SDS011;4301;48.362;8.478;2022-09-30T02:47:08;7.90;;;5.37;;
8526;SDS011;4301;48.362;8.478;2022-09-30T02:49:42;5.93;;;5.27;;
8526;SDS011;4301;48.362;8.478;2022-09-30T02:52:16;5.33;;;4.83;;
8526;SDS011;4301;48.362;8.478;2022-09-30T02:54:51;5.03;;;3.97;;
8526;SDS011;4301;48.362;8.478;2022-09-30T02:57:34;4.73;;;4.33;;
8526;SDS011;4301;48.362;8.478;2022-09-30T03:00:07;8.00;;;5.37;;
8526;SDS011;4301;48.362;8.478;2022-09-30T03:02:35;7.33;;;5.40;;
8526;SDS011;4301;48.362;8.478;2022-09-30T03:05:04;5.90;;;5.30;;
8526;SDS011;4301;48.362;8.478;2022-09-30T03:07:32;5.60;;;5.10;;
8526;SDS011;4301;48.362;8.478;2022-09-30T03:09:59;5.93;;;5.43;;
8526;SDS011;4301;48.362;8.478;2022-09-30T03:12:30;5.80;;;5.00;;
8526;SDS011;4301;48.362;8.478;2022-09-30T03:17:58;6.23;;;5.10;;
8526;SDS011;4301;48.362;8.478;2022-09-30T03:20:40;5.90;;;5.40;;
8526;SDS011;4301;48.362;8.478;2022-09-30T03:23:18;5.10;;;4.70;;
8526;SDS011;4301;48.362;8.478;2022-09-30T03:26:06;6.30;;;5.63;;
8526;SDS011;4301;48.362;8.478;2022-09-30T03:28:44;8.60;;;5.37;;
8526;SDS011;4301;48.362;8.478;2022-09-30T03:31:21;6.27;;;5.57;;
8526;SDS011;4301;48.362;8.478;2022-09-30T03:33:54;9.90;;;5.67;;
8526;SDS011;4301;48.362;8.478;2022-09-30T03:36:29;5.63;;;5.00;;
8526;SDS011;4301;48.362;8.478;2022-09-30T03:39:04;6.13;;;5.50;;
8526;SDS011;4301;48.362;8.478;2022-09-30T03:41:39;6.13;;;5.40;;
8526;SDS011;4301;48.362;8.478;2022-09-30T03:44:13;4.80;;;4.40;;
8526;SDS011;4301;48.362;8.478;2022-09-30T03:46:44;13.83;;;4.50;;
8526;SDS011;4301;48.362;8.478;2022-09-30T03:49:17;5.00;;;4.50;;
8526;SDS011;4301;48.362;8.478;2022-09-30T03:51:49;7.93;;;4.57;;
8526;SDS011;4301;48.362;8.478;2022-09-30T03:54:17;10.17;;;5.17;;
8526;SDS011;4301;48.362;8.478;2022-09-30T03:56:44;13.37;;;5.17;;
8526;SDS011;4301;48.362;8.478;2022-09-30T03:59:15;39.40;;;6.70;;
8526;SDS011;4301;48.362;8.478;2022-09-30T04:01:46;24.73;;;6.30;;
8526;SDS011;4301;48.362;8.478;2022-09-30T04:04:14;46.57;;;6.80;;
8526;SDS011;4301;48.362;8.478;2022-09-30T04:06:41;13.60;;;6.03;;
8526;SDS011;4301;48.362;8.478;2022-09-30T04:09:10;27.27;;;5.43;;
8526;SDS011;4301;48.362;8.478;2022-09-30T04:11:37;53.40;;;6.77;;
8526;SDS011;4301;48.362;8.478;2022-09-30T04:14:05;37.47;;;6.70;;
8526;SDS011;4301;48.362;8.478;2022-09-30T04:16:32;60.33;;;6.40;;
8526;SDS011;4301;48.362;8.478;2022-09-30T04:19:00;18.30;;;5.47;;
8526;SDS011;4301;48.362;8.478;2022-09-30T04:21:27;24.97;;;5.60;;
8526;SDS011;4301;48.362;8.478;2022-09-30T04:23:55;12.73;;;5.37;;
8526;SDS011;4301;48.362;8.478;2022-09-30T04:26:23;5.47;;;5.03;;
8526;SDS011;4301;48.362;8.478;2022-09-30T04:28:51;17.47;;;4.93;;
8526;SDS011;4301;48.362;8.478;2022-09-30T04:31:19;7.30;;;5.40;;
8526;SDS011;4301;48.362;8.478;2022-09-30T04:33:46;5.83;;;4.97;;
8526;SDS011;4301;48.362;8.478;2022-09-30T04:36:13;5.00;;;4.60;;
8526;SDS011;4301;48.362;8.478;2022-09-30T04:38:40;13.47;;;5.33;;
8526;SDS011;4301;48.362;8.478;2022-09-30T04:41:08;8.17;;;5.00;;
8526;SDS011;4301;48.362;8.478;2022-09-30T04:43:42;4.97;;;4.57;;
8526;SDS011;4301;48.362;8.478;2022-09-30T04:46:11;4.83;;;4.43;;
8526;SDS011;4301;48.362;8.478;2022-09-30T04:48:38;5.30;;;4.33;;
8526;SDS011;4301;48.362;8.478;2022-09-30T04:51:09;4.57;;;4.27;;
8526;SDS011;4301;48.362;8.478;2022-09-30T04:53:37;4.77;;;4.37;;
8526;SDS011;4301;48.362;8.478;2022-09-30T04:56:05;5.10;;;4.70;;
8526;SDS011;4301;48.362;8.478;2022-09-30T04:58:32;5.17;;;4.77;;
8526;SDS011;4301;48.362;8.478;2022-09-30T05:01:01;5.97;;;5.47;;
8526;SDS011;4301;48.362;8.478;2022-09-30T05:03:29;8.00;;;5.80;;
8526;SDS011;4301;48.362;8.478;2022-09-30T05:05:57;13.97;;;6.50;;
8526;SDS011;4301;48.362;8.478;2022-09-30T05:08:24;6.37;;;5.77;;
8526;SDS011;4301;48.362;8.478;2022-09-30T05:10:54;10.80;;;6.30;;
8526;SDS011;4301;48.362;8.478;2022-09-30T05:13:22;8.00;;;6.17;;
8526;SDS011;4301;48.362;8.478;2022-09-30T05:15:50;6.37;;;5.47;;
8526;SDS011;4301;48.362;8.478;2022-09-30T05:18:19;7.20;;;5.07;;
8526;SDS011;4301;48.362;8.478;2022-09-30T05:20:48;5.13;;;4.63;;
8526;SDS011;4301;48.362;8.478;2022-09-30T05:23:16;21.00;;;5.90;;
8526;SDS011;4301;48.362;8.478;2022-09-30T05:25:43;6.57;;;5.73;;
8526;SDS011;4301;48.362;8.478;2022-09-30T05:28:11;8.37;;;5.87;;
8526;SDS011;4301;48.362;8.478;2022-09-30T05:30:39;8.02;;;6.40;;
8526;SDS011;4301;48.362;8.478;2022-09-30T05:33:07;6.70;;;5.60;;
8526;SDS011;4301;48.362;8.478;2022-09-30T05:35:37;4.80;;;4.40;;
8526;SDS011;4301;48.362;8.478;2022-09-30T05:38:05;4.73;;;4.33;;
8526;SDS011;4301;48.362;8.478;2022-09-30T05:40:35;4.47;;;4.07;;
8526;SDS011;4301;48.362;8.478;2022-09-30T05:43:03;4.90;;;4.40;;
8526;SDS011;4301;48.362;8.478;2022-09-30T05:45:30;8.43;;;5.17;;
8526;SDS011;4301;48.362;8.478;2022-09-30T05:47:58;5.30;;;4.80;;
8526;SDS011;4301;48.362;8.478;2022-09-30T05:50:25;5.30;;;4.20;;
8526;SDS011;4301;48.362;8.478;2022-09-30T05:52:54;6.47;;;4.20;;
8526;SDS011;4301;48.362;8.478;2022-09-30T05:55:21;9.37;;;4.40;;
8526;SDS011;4301;48.362;8.478;2022-09-30T05:57:49;4.00;;;3.70;;
8526;SDS011;4301;48.362;8.478;2022-09-30T06:00:17;4.00;;;3.70;;
8526;SDS011;4301;48.362;8.478;2022-09-30T06:02:45;4.33;;;3.93;;
8526;SDS011;4301;48.362;8.478;2022-09-30T06:05:17;4.10;;;3.80;;
8526;SDS011;4301;48.362;8.478;2022-09-30T06:07:44;9.33;;;4.13;;
8526;SDS011;4301;48.362;8.478;2022-09-30T06:10:13;15.63;;;4.80;;
8526;SDS011;4301;48.362;8.478;2022-09-30T06:12:40;5.23;;;4.77;;
8526;SDS011;4301;48.362;8.478;2022-09-30T06:15:07;18.00;;;5.23;;
8526;SDS011;4301;48.362;8.478;2022-09-30T06:17:35;8.83;;;4.97;;
8526;SDS011;4301;48.362;8.478;2022-09-30T06:20:02;5.17;;;4.77;;
8526;SDS011;4301;48.362;8.478;2022-09-30T06:22:31;5.10;;;4.70;;
8526;SDS011;4301;48.362;8.478;2022-09-30T06:25:01;13.03;;;5.40;;
8526;SDS011;4301;48.362;8.478;2022-09-30T06:27:31;13.60;;;5.60;;
8526;SDS011;4301;48.362;8.478;2022-09-30T06:29:59;9.77;;;5.67;;
8526;SDS011;4301;48.362;8.478;2022-09-30T06:32:27;20.17;;;5.40;;
8526;SDS011;4301;48.362;8.478;2022-09-30T06:34:54;7.77;;;4.60;;
8526;SDS011;4301;48.362;8.478;2022-09-30T06:37:22;9.37;;;4.87;;
8526;SDS011;4301;48.362;8.478;2022-09-30T06:39:49;7.30;;;5.13;;
8526;SDS011;4301;48.362;8.478;2022-09-30T06:42:16;11.40;;;5.87;;
8526;SDS011;4301;48.362;8.478;2022-09-30T06:44:45;5.10;;;4.60;;
8526;SDS011;4301;48.362;8.478;2022-09-30T06:47:13;5.03;;;4.63;;
8526;SDS011;4301;48.362;8.478;2022-09-30T06:49:40;6.13;;;5.40;;
8526;SDS011;4301;48.362;8.478;2022-09-30T06:52:07;4.67;;;4.27;;
8526;SDS011;4301;48.362;8.478;2022-09-30T06:54:37;4.70;;;4.30;;
8526;SDS011;4301;48.362;8.478;2022-09-30T06:57:05;5.70;;;4.90;;
8526;SDS011;4301;48.362;8.478;2022-09-30T06:59:33;6.00;;;4.40;;
8526;SDS011;4301;48.362;8.478;2022-09-30T07:02:01;9.50;;;4.87;;
8526;SDS011;4301;48.362;8.478;2022-09-30T07:04:28;5.10;;;4.60;;
8526;SDS011;4301;48.362;8.478;2022-09-30T07:06:56;4.30;;;3.90;;
8526;SDS011;4301;48.362;8.478;2022-09-30T07:09:23;6.43;;;5.87;;
8526;SDS011;4301;48.362;8.478;2022-09-30T07:11:50;6.17;;;5.67;;
8526;SDS011;4301;48.362;8.478;2022-09-30T07:14:17;7.63;;;5.37;;
8526;SDS011;4301;48.362;8.478;2022-09-30T07:16:48;4.77;;;4.40;;
8526;SDS011;4301;48.362;8.478;2022-09-30T07:19:18;3.50;;;3.23;;
8526;SDS011;4301;48.362;8.478;2022-09-30T07:21:47;3.33;;;3.03;;
8526;SDS011;4301;48.362;8.478;2022-09-30T07:24:15;3.30;;;3.10;;
8526;SDS011;4301;48.362;8.478;2022-09-30T07:26:43;5.20;;;4.47;;
8526;SDS011;4301;48.362;8.478;2022-09-30T07:29:10;4.10;;;3.80;;
8526;SDS011;4301;48.362;8.478;2022-09-30T07:31:38;5.50;;;4.30;;
8526;SDS011;4301;48.362;8.478;2022-09-30T07:34:06;6.20;;;5.70;;
8526;SDS011;4301;48.362;8.478;2022-09-30T07:36:36;6.37;;;5.77;;
8526;SDS011;4301;48.362;8.478;2022-09-30T07:39:07;6.57;;;5.57;;
8526;SDS011;4301;48.362;8.478;2022-09-30T07:41:36;6.97;;;5.67;;
8526;SDS011;4301;48.362;8.478;2022-09-30T07:44:06;6.60;;;5.73;;
8526;SDS011;4301;48.362;8.478;2022-09-30T07:46:36;7.43;;;5.43;;
8526;SDS011;4301;48.362;8.478;2022-09-30T07:49:04;5.70;;;5.20;;
8526;SDS011;4301;48.362;8.478;2022-09-30T07:51:34;5.67;;;5.00;;
8526;SDS011;4301;48.362;8.478;2022-09-30T07:54:05;5.37;;;4.87;;
8526;SDS011;4301;48.362;8.478;2022-09-30T07:56:33;5.53;;;5.03;;
8526;SDS011;4301;48.362;8.478;2022-09-30T07:59:02;5.70;;;5.20;;
8526;SDS011;4301;48.362;8.478;2022-09-30T08:01:31;5.87;;;5.33;;
8526;SDS011;4301;48.362;8.478;2022-09-30T08:03:59;5.30;;;4.80;;
8526;SDS011;4301;48.362;8.478;2022-09-30T08:06:28;5.70;;;4.77;;
8526;SDS011;4301;48.362;8.478;2022-09-30T08:08:58;6.00;;;5.50;;
8526;SDS011;4301;48.362;8.478;2022-09-30T08:11:25;5.60;;;5.10;;
8526;SDS011;4301;48.362;8.478;2022-09-30T08:13:53;5.93;;;5.33;;
8526;SDS011;4301;48.362;8.478;2022-09-30T08:16:21;5.67;;;5.17;;
8526;SDS011;4301;48.362;8.478;2022-09-30T08:18:52;6.97;;;6.17;;
8526;SDS011;4301;48.362;8.478;2022-09-30T08:21:20;8.77;;;7.00;;
8526;SDS011;4301;48.362;8.478;2022-09-30T08:23:48;10.87;;;6.80;;
8526;SDS011;4301;48.362;8.478;2022-09-30T08:26:17;7.20;;;6.40;;
8526;SDS011;4301;48.362;8.478;2022-09-30T08:28:44;7.20;;;6.23;;
8526;SDS011;4301;48.362;8.478;2022-09-30T08:31:13;7.73;;;6.00;;
8526;SDS011;4301;48.362;8.478;2022-09-30T08:33:42;6.40;;;5.80;;
8526;SDS011;4301;48.362;8.478;2022-09-30T08:36:10;7.50;;;5.60;;
8526;SDS011;4301;48.362;8.478;2022-09-30T08:38:38;7.23;;;6.43;;
8526;SDS011;4301;48.362;8.478;2022-09-30T08:41:12;8.07;;;6.10;;
8526;SDS011;4301;48.362;8.478;2022-09-30T08:43:57;7.73;;;7.03;;
8526;SDS011;4301;48.362;8.478;2022-09-30T08:46:36;9.10;;;7.20;;
8526;SDS011;4301;48.362;8.478;2022-09-30T08:49:15;8.17;;;7.37;;
8526;SDS011;4301;48.362;8.478;2022-09-30T08:51:53;7.07;;;6.47;;
8526;SDS011;4301;48.362;8.478;2022-09-30T08:54:23;6.20;;;5.70;;
8526;SDS011;4301;48.362;8.478;2022-09-30T08:56:55;7.23;;;6.43;;
8526;SDS011;4301;48.362;8.478;2022-09-30T08:59:26;7.67;;;6.87;;
8526;SDS011;4301;48.362;8.478;2022-09-30T09:01:57;8.20;;;6.17;;
8526;SDS011;4301;48.362;8.478;2022-09-30T09:04:27;8.57;;;6.47;;
8526;SDS011;4301;48.362;8.478;2022-09-30T09:06:56;9.63;;;8.67;;
8526;SDS011;4301;48.362;8.478;2022-09-30T09:09:36;9.93;;;8.53;;
8526;SDS011;4301;48.362;8.478;2022-09-30T09:12:20;9.40;;;7.70;;
8526;SDS011;4301;48.362;8.478;2022-09-30T09:14:59;8.40;;;7.53;;
8526;SDS011;4301;48.362;8.478;2022-09-30T09:17:50;12.33;;;10.27;;
8526;SDS011;4301;48.362;8.478;2022-09-30T09:20:35;9.17;;;7.87;;
8526;SDS011;4301;48.362;8.478;2022-09-30T09:23:07;9.07;;;7.77;;
8526;SDS011;4301;48.362;8.478;2022-09-30T09:25:38;8.60;;;7.70;;
8526;SDS011;4301;48.362;8.478;2022-09-30T09:28:21;7.93;;;7.10;;
8526;SDS011;4301;48.362;8.478;2022-09-30T09:30:54;8.43;;;6.80;;
8526;SDS011;4301;48.362;8.478;2022-09-30T09:33:27;7.80;;;6.97;;
8526;SDS011;4301;48.362;8.478;2022-09-30T09:36:01;7.93;;;7.10;;
8526;SDS011;4301;48.362;8.478;2022-09-30T09:38:35;7.47;;;6.63;;
8526;SDS011;4301;48.362;8.478;2022-09-30T09:41:19;7.47;;;6.73;;
8526;SDS011;4301;48.362;8.478;2022-09-30T09:43:56;7.17;;;6.47;;
8526;SDS011;4301;48.362;8.478;2022-09-30T09:46:28;8.73;;;6.90;;
8526;SDS011;4301;48.362;8.478;2022-09-30T09:52:07;8.80;;;6.73;;
8526;SDS011;4301;48.362;8.478;2022-09-30T09:55:04;7.70;;;6.53;;
8526;SDS011;4301;48.362;8.478;2022-09-30T09:57:33;7.40;;;6.67;;
8526;SDS011;4301;48.362;8.478;2022-09-30T10:00:03;7.03;;;6.37;;
8526;SDS011;4301;48.362;8.478;2022-09-30T10:02:56;7.40;;;6.70;;
8526;SDS011;4301;48.362;8.478;2022-09-30T10:05:29;8.80;;;6.37;;
8526;SDS011;4301;48.362;8.478;2022-09-30T10:08:07;7.33;;;6.63;;
8526;SDS011;4301;48.362;8.478;2022-09-30T10:10:46;9.57;;;6.77;;
8526;SDS011;4301;48.362;8.478;2022-09-30T10:13:19;6.97;;;6.37;;
8526;SDS011;4301;48.362;8.478;2022-09-30T10:15:49;8.80;;;6.70;;
8526;SDS011;4301;48.362;8.478;2022-09-30T10:18:20;7.50;;;6.70;;
8526;SDS011;4301;48.362;8.478;2022-09-30T10:20:55;9.33;;;6.90;;
8526;SDS011;4301;48.362;8.478;2022-09-30T10:23:28;7.37;;;6.50;;
8526;SDS011;4301;48.362;8.478;2022-09-30T10:25:58;7.20;;;5.83;;
8526;SDS011;4301;48.362;8.478;2022-09-30T10:28:28;6.03;;;5.53;;
8526;SDS011;4301;48.362;8.478;2022-09-30T10:30:59;6.77;;;5.43;;
8526;SDS011;4301;48.362;8.478;2022-09-30T10:33:33;8.27;;;4.55;;
8526;SDS011;4301;48.362;8.478;2022-09-30T10:36:08;5.50;;;5.00;;
8526;SDS011;4301;48.362;8.478;2022-09-30T10:38:47;7.38;;;4.72;;
8526;SDS011;4301;48.362;8.478;2022-09-30T10:41:34;6.47;;;5.22;;
8526;SDS011;4301;48.362;8.478;2022-09-30T10:44:04;4.30;;;4.00;;
8526;SDS011;4301;48.362;8.478;2022-09-30T10:46:39;4.80;;;4.40;;
8526;SDS011;4301;48.362;8.478;2022-09-30T10:49:09;4.18;;;3.75;;
8526;SDS011;4301;48.362;8.478;2022-09-30T10:51:37;4.32;;;3.95;;
8526;SDS011;4301;48.362;8.478;2022-09-30T10:54:05;4.53;;;4.13;;
8526;SDS011;4301;48.362;8.478;2022-09-30T10:56:34;4.32;;;3.88;;
8526;SDS011;4301;48.362;8.478;2022-09-30T10:59:03;3.78;;;3.47;;
8526;SDS011;4301;48.362;8.478;2022-09-30T11:01:42;4.13;;;3.72;;
8526;SDS011;4301;48.362;8.478;2022-09-30T11:04:15;4.00;;;3.70;;
8526;SDS011;4301;48.362;8.478;2022-09-30T11:06:48;3.95;;;3.65;;
8526;SDS011;4301;48.362;8.478;2022-09-30T11:09:24;3.60;;;3.40;;
8526;SDS011;4301;48.362;8.478;2022-09-30T11:11:59;4.10;;;3.70;;
8526;SDS011;4301;48.362;8.478;2022-09-30T11:14:32;4.07;;;3.70;;
8526;SDS011;4301;48.362;8.478;2022-09-30T11:17:09;4.93;;;3.60;;
8526;SDS011;4301;48.362;8.478;2022-09-30T11:19:49;4.25;;;3.85;;
8526;SDS011;4301;48.362;8.478;2022-09-30T11:22:32;3.83;;;3.53;;
8526;SDS011;4301;48.362;8.478;2022-09-30T11:25:05;4.05;;;3.45;;
8526;SDS011;4301;48.362;8.478;2022-09-30T11:27:38;3.45;;;2.90;;
8526;SDS011;4301;48.362;8.478;2022-09-30T11:30:24;4.25;;;3.75;;
8526;SDS011;4301;48.362;8.478;2022-09-30T11:33:04;4.78;;;3.70;;
8526;SDS011;4301;48.362;8.478;2022-09-30T11:35:43;4.18;;;3.85;;
8526;SDS011;4301;48.362;8.478;2022-09-30T11:38:20;3.90;;;3.58;;
8526;SDS011;4301;48.362;8.478;2022-09-30T11:41:08;3.63;;;3.22;;
8526;SDS011;4301;48.362;8.478;2022-09-30T11:43:40;3.78;;;3.47;;
8526;SDS011;4301;48.362;8.478;2022-09-30T11:46:29;3.65;;;3.35;;
8526;SDS011;4301;48.362;8.478;2022-09-30T11:49:27;3.60;;;3.38;;
8526;SDS011;4301;48.362;8.478;2022-09-30T11:52:05;3.47;;;3.28;;
8526;SDS011;4301;48.362;8.478;2022-09-30T11:54:44;3.92;;;3.20;;
8526;SDS011;4301;48.362;8.478;2022-09-30T11:57:26;4.50;;;2.88;;
8526;SDS011;4301;48.362;8.478;2022-09-30T11:59:58;3.70;;;2.95;;
8526;SDS011;4301;48.362;8.478;2022-09-30T12:02:29;3.90;;;3.50;;
8526;SDS011;4301;48.362;8.478;2022-09-30T12:05:04;3.60;;;3.33;;
8526;SDS011;4301;48.362;8.478;2022-09-30T12:07:37;3.03;;;2.83;;
8526;SDS011;4301;48.362;8.478;2022-09-30T12:10:18;3.25;;;2.95;;
8526;SDS011;4301;48.362;8.478;2022-09-30T12:12:50;2.80;;;2.60;;
8526;SDS011;4301;48.362;8.478;2022-09-30T12:15:21;2.95;;;2.75;;
8526;SDS011;4301;48.362;8.478;2022-09-30T12:17:52;3.05;;;2.80;;
8526;SDS011;4301;48.362;8.478;2022-09-30T12:20:26;4.57;;;2.75;;
8526;SDS011;4301;48.362;8.478;2022-09-30T12:22:59;3.40;;;3.10;;
8526;SDS011;4301;48.362;8.478;2022-09-30T12:25:36;2.80;;;2.60;;
8526;SDS011;4301;48.362;8.478;2022-09-30T12:28:07;3.00;;;2.80;;
8526;SDS011;4301;48.362;8.478;2022-09-30T12:31:02;3.33;;;3.13;;
8526;SDS011;4301;48.362;8.478;2022-09-30T12:33:45;2.90;;;2.72;;
8526;SDS011;4301;48.362;8.478;2022-09-30T12:36:37;4.25;;;2.60;;
8526;SDS011;4301;48.362;8.478;2022-09-30T12:48:19;2.50;;;2.30;;
8526;SDS011;4301;48.362;8.478;2022-09-30T12:50:49;3.75;;;2.08;;
8526;SDS011;4301;48.362;8.478;2022-09-30T12:53:22;1.52;;;1.50;;
8526;SDS011;4301;48.362;8.478;2022-09-30T12:55:52;1.80;;;1.70;;
8526;SDS011;4301;48.362;8.478;2022-09-30T12:58:29;2.38;;;2.10;;
8526;SDS011;4301;48.362;8.478;2022-09-30T13:01:01;2.22;;;2.03;;
8526;SDS011;4301;48.362;8.478;2022-09-30T13:12:48;2.25;;;1.55;;
8526;SDS011;4301;48.362;8.478;2022-09-30T13:15:42;2.58;;;1.38;;
8526;SDS011;4301;48.362;8.478;2022-09-30T13:21:16;2.80;;;1.60;;
8526;SDS011;4301;48.362;8.478;2022-09-30T13:23:46;1.60;;;1.50;;
8526;SDS011;4301;48.362;8.478;2022-09-30T13:26:35;2.57;;;1.73;;
8526;SDS011;4301;48.362;8.478;2022-09-30T13:32:09;1.80;;;1.47;;
8526;SDS011;4301;48.362;8.478;2022-09-30T13:40:42;1.27;;;1.27;;
8526;SDS011;4301;48.362;8.478;2022-09-30T13:43:15;1.90;;;1.30;;
8526;SDS011;4301;48.362;8.478;2022-09-30T13:45:47;2.77;;;1.23;;
8526;SDS011;4301;48.362;8.478;2022-09-30T13:48:20;1.83;;;1.40;;
8526;SDS011;4301;48.362;8.478;2022-09-30T13:50:52;1.40;;;1.30;;
8526;SDS011;4301;48.362;8.478;2022-09-30T13:53:22;2.17;;;1.67;;
8526;SDS011;4301;48.362;8.478;2022-09-30T13:55:54;1.70;;;1.60;;
8526;SDS011;4301;48.362;8.478;2022-09-30T13:58:32;1.40;;;1.30;;
8526;SDS011;4301;48.362;8.478;2022-09-30T14:01:17;1.50;;;1.40;;
8526;SDS011;4301;48.362;8.478;2022-09-30T14:04:07;1.20;;;1.10;;
8526;SDS011;4301;48.362;8.478;2022-09-30T14:07:03;1.37;;;1.27;;
8526;SDS011;4301;48.362;8.478;2022-09-30T14:09:42;1.13;;;1.00;;
8526;SDS011;4301;48.362;8.478;2022-09-30T14:12:30;2.63;;;1.00;;
8526;SDS011;4301;48.362;8.478;2022-09-30T14:18:18;2.10;;;1.00;;
8526;SDS011;4301;48.362;8.478;2022-09-30T14:21:04;1.07;;;1.07;;
8526;SDS011;4301;48.362;8.478;2022-09-30T14:23:53;1.40;;;1.30;;
8526;SDS011;4301;48.362;8.478;2022-09-30T14:26:32;1.53;;;1.20;;
8526;SDS011;4301;48.362;8.478;2022-09-30T14:29:16;1.30;;;1.30;;
8526;SDS011;4301;48.362;8.478;2022-09-30T14:31:52;1.90;;;1.33;;
8526;SDS011;4301;48.362;8.478;2022-09-30T14:34:20;1.30;;;1.20;;
8526;SDS011;4301;48.362;8.478;2022-09-30T14:36:51;2.23;;;1.37;;
8526;SDS011;4301;48.362;8.478;2022-09-30T14:39:20;1.43;;;1.37;;
8526;SDS011;4301;48.362;8.478;2022-09-30T14:41:52;1.43;;;1.33;;
8526;SDS011;4301;48.362;8.478;2022-09-30T14:44:22;1.40;;;1.30;;
8526;SDS011;4301;48.362;8.478;2022-09-30T14:46:51;1.43;;;1.20;;
8526;SDS011;4301;48.362;8.478;2022-09-30T14:49:25;1.00;;;1.00;;
8526;SDS011;4301;48.362;8.478;2022-09-30T14:51:59;1.13;;;1.13;;
8526;SDS011;4301;48.362;8.478;2022-09-30T14:54:28;1.43;;;1.37;;
8526;SDS011;4301;48.362;8.478;2022-09-30T14:56:56;1.63;;;1.53;;
8526;SDS011;4301;48.362;8.478;2022-09-30T14:59:25;2.87;;;1.40;;
8526;SDS011;4301;48.362;8.478;2022-09-30T15:01:54;1.73;;;1.63;;
8526;SDS011;4301;48.362;8.478;2022-09-30T15:04:25;4.47;;;1.60;;
8526;SDS011;4301;48.362;8.478;2022-09-30T15:06:55;2.10;;;2.00;;
8526;SDS011;4301;48.362;8.478;2022-09-30T15:09:28;1.70;;;1.60;;
8526;SDS011;4301;48.362;8.478;2022-09-30T15:12:02;1.70;;;1.60;;
8526;SDS011;4301;48.362;8.478;2022-09-30T15:14:30;5.07;;;1.80;;
8526;SDS011;4301;48.362;8.478;2022-09-30T15:16:58;3.63;;;1.63;;
8526;SDS011;4301;48.362;8.478;2022-09-30T15:19:25;1.63;;;1.53;;
8526;SDS011;4301;48.362;8.478;2022-09-30T15:21:55;1.47;;;1.47;;
8526;SDS011;4301;48.362;8.478;2022-09-30T15:24:29;4.63;;;1.77;;
8526;SDS011;4301;48.362;8.478;2022-09-30T15:26:57;3.30;;;3.10;;
8526;SDS011;4301;48.362;8.478;2022-09-30T15:29:26;2.90;;;2.80;;
8526;SDS011;4301;48.362;8.478;2022-09-30T15:31:55;2.70;;;2.30;;
8526;SDS011;4301;48.362;8.478;2022-09-30T15:34:26;2.20;;;2.00;;
8526;SDS011;4301;48.362;8.478;2022-09-30T15:36:55;2.03;;;1.93;;
8526;SDS011;4301;48.362;8.478;2022-09-30T15:39:30;1.80;;;1.70;;
8526;SDS011;4301;48.362;8.478;2022-09-30T15:42:12;1.80;;;1.70;;
8526;SDS011;4301;48.362;8.478;2022-09-30T15:44:52;2.03;;;1.93;;
8526;SDS011;4301;48.362;8.478;2022-09-30T15:47:22;1.80;;;1.70;;
8526;SDS011;4301;48.362;8.478;2022-09-30T15:49:49;2.80;;;2.60;;
8526;SDS011;4301;48.362;8.478;2022-09-30T15:52:25;2.30;;;2.10;;
8526;SDS011;4301;48.362;8.478;2022-09-30T15:55:02;1.80;;;1.70;;
8526;SDS011;4301;48.362;8.478;2022-09-30T15:58:02;2.13;;;2.03;;
8526;SDS011;4301;48.362;8.478;2022-09-30T16:00:31;2.03;;;1.93;;
8526;SDS011;4301;48.362;8.478;2022-09-30T16:05:51;2.90;;;2.60;;
8526;SDS011;4301;48.362;8.478;2022-09-30T16:08:19;2.50;;;2.40;;
8526;SDS011;4301;48.362;8.478;2022-09-30T16:10:51;4.17;;;3.20;;
8526;SDS011;4301;48.362;8.478;2022-09-30T16:13:22;3.80;;;3.50;;
8526;SDS011;4301;48.362;8.478;2022-09-30T16:15:54;2.83;;;2.20;;
8526;SDS011;4301;48.362;8.478;2022-09-30T16:18:24;3.87;;;2.27;;
8526;SDS011;4301;48.362;8.478;2022-09-30T16:20:56;2.93;;;2.73;;
8526;SDS011;4301;48.362;8.478;2022-09-30T16:23:26;2.70;;;2.50;;
8526;SDS011;4301;48.362;8.478;2022-09-30T16:28:48;2.00;;;1.87;;
8526;SDS011;4301;48.362;8.478;2022-09-30T16:31:16;2.87;;;2.10;;
8526;SDS011;4301;48.362;8.478;2022-09-30T16:33:44;3.47;;;2.00;;
8526;SDS011;4301;48.362;8.478;2022-09-30T16:36:12;1.77;;;1.70;;
8526;SDS011;4301;48.362;8.478;2022-09-30T16:38:39;4.07;;;2.30;;